createdAt,value
2022-10-17T00:01:14.875Z,15.88
2022-10-17T00:04:20.491Z,20.65
2022-10-17T00:07:26.902Z,32.72
2022-10-17T00:10:33.324Z,35.42
2022-10-17T00:13:39.492Z,30.15
2022-10-17T00:16:45.653Z,57.53
2022-10-17T00:19:52.019Z,66.35
2022-10-17T00:22:58.491Z,54.50
2022-10-17T00:26:07.739Z,69.40
2022-10-17T00:29:14.301Z,88.47
2022-10-17T00:32:21.390Z,94.85
2022-10-17T00:35:27.658Z,82.93
2022-10-17T00:38:34.034Z,85.47
2022-10-17T00:41:40.293Z,85.65
2022-10-17T00:44:49.032Z,88.82
2022-10-17T00:48:02.961Z,84.93
2022-10-17T00:51:09.758Z,87.63
2022-10-17T00:54:18.680Z,82.90
2022-10-17T00:57:25.357Z,101.38
2022-10-17T01:00:31.835Z,76.60
2022-10-17T01:03:38.601Z,90.13
2022-10-17T01:06:44.377Z,101.05
2022-10-17T01:09:53.737Z,93.72
2022-10-17T01:13:34.272Z,75.05
2022-10-17T01:17:05.600Z,69.97
2022-10-17T01:20:56.667Z,48.55
2022-10-17T01:24:28.996Z,60.15
2022-10-17T01:27:43.454Z,59.30
2022-10-17T01:31:36.180Z,67.05
2022-10-17T01:35:23.613Z,51.33
2022-10-17T01:41:56.363Z,57.70
2022-10-17T01:45:05.964Z,65.07
2022-10-17T01:48:19.127Z,46.95
2022-10-17T01:51:31.796Z,61.92
2022-10-17T01:54:54.387Z,58.00
2022-10-17T01:58:14.960Z,57.80
2022-10-17T02:01:23.743Z,39.38
2022-10-17T02:04:28.451Z,28.95
2022-10-17T02:07:32.011Z,26.13
2022-10-17T02:10:57.051Z,22.83
2022-10-17T02:14:05.871Z,33.22
2022-10-17T02:17:22.217Z,29.10
2022-10-17T02:20:50.242Z,24.42
2022-10-17T02:24:02.925Z,26.65
2022-10-17T02:27:24.445Z,28.05
2022-10-17T02:31:01.929Z,34.40
2022-10-17T02:34:10.411Z,26.15
2022-10-17T02:37:18.269Z,29.98
2022-10-17T02:40:25.046Z,13.10
2022-10-17T02:43:29.884Z,35.20
2022-10-17T02:46:36.134Z,39.08
2022-10-17T02:49:45.084Z,33.67
2022-10-17T02:52:57.540Z,26.48
2022-10-17T02:56:05.874Z,17.77
2022-10-17T02:59:13.351Z,14.65
2022-10-17T03:02:17.737Z,15.50
2022-10-17T03:05:23.294Z,16.83
2022-10-17T03:08:26.855Z,7.80
2022-10-17T03:11:32.437Z,13.85
2022-10-17T03:14:36.526Z,15.88
2022-10-17T03:17:41.168Z,10.88
2022-10-17T03:20:45.372Z,13.50
2022-10-17T03:23:49.599Z,12.68
2022-10-17T03:30:15.090Z,15.88
2022-10-17T03:33:19.804Z,13.65
2022-10-17T03:39:44.151Z,11.68
2022-10-17T03:42:48.119Z,19.33
2022-10-17T03:45:51.245Z,21.80
2022-10-17T03:48:55.114Z,21.75
2022-10-17T03:52:01.132Z,16.00
2022-10-17T03:55:05.897Z,21.75
2022-10-17T03:58:08.954Z,18.60
2022-10-17T04:01:15.787Z,17.75
2022-10-17T04:40:14.043Z,20.27
2022-10-17T04:43:17.599Z,15.43
2022-10-17T04:46:21.787Z,13.85
2022-10-17T04:49:25.625Z,16.48
2022-10-17T04:52:39.949Z,14.80
2022-10-17T04:55:45.147Z,11.65
2022-10-17T04:58:50.648Z,11.02
2022-10-17T05:01:53.844Z,8.85
2022-10-17T05:04:57.428Z,9.02
2022-10-17T05:08:00.365Z,6.20
2022-10-17T05:11:17.522Z,3.67
2022-10-17T05:14:21.153Z,5.78
2022-10-17T05:17:26.059Z,9.52
2022-10-17T05:20:29.192Z,11.30
2022-10-17T05:23:32.850Z,10.20
2022-10-17T05:26:36.257Z,9.82
2022-10-17T05:29:40.668Z,5.60
2022-10-17T05:33:05.915Z,9.55
2022-10-17T05:36:10.622Z,8.68
2022-10-17T05:39:20.126Z,12.05
2022-10-17T05:42:25.944Z,8.15
2022-10-17T05:45:29.656Z,7.25
2022-10-17T05:48:33.676Z,6.70
2022-10-17T05:51:37.523Z,11.65
2022-10-17T05:54:41.199Z,3.22
2022-10-17T05:57:45.159Z,4.07
2022-10-17T06:00:53.131Z,3.53
2022-10-17T06:03:56.908Z,1.88
2022-10-17T06:07:01.430Z,3.15
2022-10-17T06:10:05.844Z,6.65
2022-10-17T06:13:10.128Z,7.07
2022-10-17T06:16:13.824Z,6.28
2022-10-17T06:19:17.556Z,11.00
2022-10-17T06:22:22.785Z,6.05
2022-10-17T06:25:26.493Z,4.20
2022-10-17T06:28:31.014Z,5.30
2022-10-17T06:31:35.192Z,4.50
2022-10-17T06:34:38.722Z,4.85
2022-10-17T06:37:42.758Z,3.17
2022-10-17T06:40:45.813Z,7.68
2022-10-17T06:43:49.380Z,3.63
2022-10-17T06:47:12.703Z,6.35
2022-10-17T06:50:19.978Z,7.13
2022-10-17T06:53:47.759Z,4.47
2022-10-17T06:57:09.875Z,3.22
2022-10-17T07:00:23.869Z,4.68
2022-10-17T07:03:30.938Z,4.32
2022-10-17T07:06:35.274Z,5.22
2022-10-17T07:09:45.563Z,4.97
2022-10-17T07:12:50.832Z,5.13
2022-10-17T07:19:07.854Z,6.20
2022-10-17T07:22:14.078Z,7.95
2022-10-17T07:25:22.368Z,4.93
2022-10-17T07:28:29.679Z,6.70
2022-10-17T07:31:36.754Z,9.45
2022-10-17T07:34:39.807Z,6.47
2022-10-17T07:37:44.810Z,11.48
2022-10-17T07:41:02.012Z,6.15
2022-10-17T07:44:05.357Z,4.43
2022-10-17T07:47:12.925Z,3.97
2022-10-17T07:50:16.759Z,5.53
2022-10-17T07:53:20.102Z,8.43
2022-10-17T07:56:25.278Z,4.53
2022-10-17T07:59:28.231Z,6.38
2022-10-17T08:02:31.406Z,5.25
2022-10-17T08:05:35.661Z,4.88
2022-10-17T08:08:38.648Z,8.15
2022-10-17T08:11:44.400Z,9.77
2022-10-17T08:14:48.698Z,8.98
2022-10-17T08:17:51.701Z,11.65
2022-10-17T08:20:57.984Z,11.82
2022-10-17T08:24:03.509Z,10.02
2022-10-17T08:27:11.953Z,12.75
2022-10-17T08:30:16.398Z,9.50
2022-10-17T08:33:19.860Z,11.48
2022-10-17T08:36:23.179Z,9.57
2022-10-17T08:39:26.236Z,10.70
2022-10-17T08:42:47.132Z,9.07
2022-10-17T08:46:01.046Z,10.75
2022-10-17T08:49:15.812Z,8.23
2022-10-17T08:52:23.890Z,10.77
2022-10-17T08:55:34.448Z,14.32
2022-10-17T08:58:38.167Z,17.65
2022-10-17T09:01:51.153Z,9.63
2022-10-17T09:05:16.917Z,16.77
2022-10-17T09:08:42.785Z,14.43
2022-10-17T09:11:55.739Z,8.73
2022-10-17T09:15:17.969Z,21.33
2022-10-17T09:18:45.705Z,18.42
2022-10-17T09:21:55.267Z,16.63
2022-10-17T09:25:07.676Z,18.08
2022-10-17T09:28:11.748Z,14.20
2022-10-17T09:31:27.358Z,21.60
2022-10-17T09:34:33.770Z,14.20
2022-10-17T09:37:37.488Z,13.23
2022-10-17T09:40:41.408Z,16.85
2022-10-17T09:43:46.478Z,10.70
2022-10-17T09:47:18.905Z,13.50
2022-10-17T09:50:27.836Z,11.38
2022-10-17T09:53:37.706Z,16.15
2022-10-17T09:57:06.100Z,8.45
2022-10-17T10:00:26.044Z,11.52
2022-10-17T10:03:30.751Z,13.30
2022-10-17T10:06:34.254Z,9.45
2022-10-17T10:09:40.274Z,13.10
2022-10-17T10:13:02.819Z,9.60
2022-10-17T10:16:33.186Z,11.45
2022-10-17T10:19:39.610Z,16.75
2022-10-17T10:22:43.717Z,12.15
2022-10-17T10:25:57.345Z,7.32
2022-10-17T10:29:04.091Z,12.73
2022-10-17T10:32:30.749Z,7.75
2022-10-17T10:35:37.774Z,10.40
2022-10-17T10:38:43.376Z,12.57
2022-10-17T10:41:49.098Z,14.02
2022-10-17T10:44:55.090Z,13.68
2022-10-17T10:48:14.574Z,14.90
2022-10-17T10:51:22.490Z,19.95
2022-10-17T10:54:36.185Z,19.42
2022-10-17T10:57:41.284Z,15.65
2022-10-17T11:00:45.261Z,15.57
2022-10-17T11:04:27.343Z,18.35
2022-10-17T11:07:49.697Z,9.25
2022-10-17T11:11:14.833Z,12.25
2022-10-17T11:14:43.354Z,16.35
2022-10-17T11:17:58.026Z,16.90
2022-10-17T11:21:25.132Z,13.20
2022-10-17T11:27:35.887Z,8.77
2022-10-17T11:30:48.574Z,17.30
2022-10-17T11:34:20.696Z,26.77
2022-10-17T11:37:28.763Z,17.83
2022-10-17T11:40:37.519Z,20.15
2022-10-17T11:43:51.536Z,38.28
2022-10-17T11:47:37.370Z,23.77
2022-10-17T11:54:25.225Z,37.22
2022-10-17T11:57:47.866Z,20.85
2022-10-17T12:01:03.852Z,21.20
2022-10-17T12:04:22.841Z,27.48
2022-10-17T12:07:46.713Z,18.67
2022-10-17T12:11:08.042Z,23.60
2022-10-17T12:14:36.638Z,11.90
2022-10-17T12:17:55.102Z,22.23
2022-10-17T12:21:01.469Z,19.05
2022-10-17T12:24:05.753Z,22.77
2022-10-17T12:27:33.922Z,24.05
2022-10-17T12:30:38.100Z,20.60
2022-10-17T12:33:59.474Z,26.33
2022-10-17T12:37:03.662Z,23.75
2022-10-17T12:40:37.560Z,23.05
2022-10-17T12:43:55.823Z,25.27
2022-10-17T12:47:31.353Z,24.65
2022-10-17T12:54:37.983Z,17.50
2022-10-17T12:57:52.806Z,19.98
2022-10-17T13:01:22.577Z,12.00
2022-10-17T13:04:23.795Z,19.55
2022-10-17T13:07:27.302Z,13.95
2022-10-17T13:10:35.659Z,21.35
2022-10-17T13:13:45.756Z,35.70
2022-10-17T13:16:56.500Z,44.42
2022-10-17T13:20:00.539Z,30.10
2022-10-17T13:23:05.147Z,21.98
2022-10-17T13:26:11.360Z,28.08
2022-10-17T13:29:18.088Z,58.75
2022-10-17T13:32:21.964Z,53.70
2022-10-17T13:38:58.639Z,69.13
2022-10-17T13:42:03.786Z,63.05
2022-10-17T13:45:18.960Z,58.92
2022-10-17T13:48:28.762Z,45.55
2022-10-17T13:51:32.714Z,36.75
2022-10-17T13:54:42.624Z,42.38
2022-10-17T13:57:46.029Z,38.85
2022-10-17T14:00:54.119Z,44.85
2022-10-17T14:04:08.321Z,43.72
2022-10-17T14:07:46.342Z,52.28
2022-10-17T14:10:59.346Z,46.42
2022-10-17T14:14:06.612Z,30.88
2022-10-17T14:17:27.713Z,28.27
2022-10-17T14:21:29.191Z,33.10
2022-10-17T14:24:28.552Z,23.60
2022-10-17T14:27:36.380Z,31.27
2022-10-17T14:30:57.281Z,35.92
2022-10-17T14:34:07.500Z,32.35
2022-10-17T14:37:36.697Z,49.20
2022-10-17T14:41:09.606Z,69.88
2022-10-17T14:44:29.678Z,38.38
2022-10-17T14:47:43.605Z,32.30
2022-10-17T14:51:11.300Z,50.72
2022-10-17T14:54:19.094Z,85.55
2022-10-17T14:57:37.450Z,70.70
2022-10-17T15:00:48.114Z,51.83
2022-10-17T15:03:58.171Z,44.67
2022-10-17T15:07:09.268Z,69.13
2022-10-17T15:10:45.225Z,74.75
2022-10-17T15:13:52.228Z,51.28
2022-10-17T15:17:02.927Z,48.72
2022-10-17T15:20:19.271Z,41.83
2022-10-17T15:23:25.315Z,52.70
2022-10-17T15:26:43.067Z,60.55
2022-10-17T15:29:48.371Z,56.03
2022-10-17T15:32:57.148Z,47.22
2022-10-17T15:36:05.775Z,35.95
2022-10-17T15:39:15.216Z,30.00
2022-10-17T15:42:25.368Z,31.45
2022-10-17T15:45:35.830Z,33.85
2022-10-17T15:48:46.501Z,39.15
2022-10-17T15:51:55.838Z,34.20
2022-10-17T15:55:06.101Z,41.17
2022-10-17T15:58:19.738Z,37.33
2022-10-17T16:01:31.032Z,41.05
2022-10-17T16:04:39.866Z,41.53
2022-10-17T16:07:49.091Z,38.00
2022-10-17T16:10:56.490Z,33.00
2022-10-17T16:14:08.288Z,37.20
2022-10-17T16:17:20.491Z,28.98
2022-10-17T16:20:29.826Z,26.88
2022-10-17T16:23:38.103Z,25.92
2022-10-17T16:26:45.835Z,30.60
2022-10-17T16:29:53.521Z,28.65
2022-10-17T16:33:00.332Z,54.30
2022-10-17T16:36:09.381Z,103.50
2022-10-17T16:39:16.764Z,101.53
2022-10-17T16:42:25.680Z,108.13
2022-10-17T16:45:35.286Z,178.07
2022-10-17T16:48:45.589Z,109.65
2022-10-17T16:51:55.132Z,190.07
2022-10-17T16:55:04.469Z,177.85
2022-10-17T16:58:16.569Z,142.32
2022-10-17T17:01:29.615Z,150.93
2022-10-17T17:04:39.863Z,106.85
2022-10-17T17:07:50.839Z,120.60
2022-10-17T17:11:00.679Z,100.75
2022-10-17T17:14:09.210Z,75.50
2022-10-17T17:17:30.466Z,70.85
2022-10-17T17:20:49.595Z,70.55
2022-10-17T17:24:01.904Z,65.65
2022-10-17T17:27:13.633Z,66.03
2022-10-17T17:30:23.851Z,89.68
2022-10-17T17:33:32.571Z,153.73
2022-10-17T17:36:44.141Z,117.00
2022-10-17T17:39:53.944Z,99.50
2022-10-17T17:43:04.038Z,112.72
2022-10-17T17:46:12.602Z,96.35
2022-10-17T17:49:21.019Z,78.50
2022-10-17T17:52:29.438Z,66.88
2022-10-17T17:58:51.383Z,50.25
2022-10-17T18:01:59.933Z,64.20
2022-10-17T18:05:07.169Z,52.28
2022-10-17T18:08:14.788Z,39.20
2022-10-17T18:11:22.306Z,47.13
2022-10-17T18:17:36.039Z,40.70
2022-10-17T18:20:46.931Z,45.47
2022-10-17T18:23:54.420Z,55.50
2022-10-17T18:27:02.646Z,63.78
2022-10-17T18:30:12.703Z,69.88
2022-10-17T18:33:21.630Z,91.93
2022-10-17T18:36:29.027Z,78.95
2022-10-17T18:42:46.164Z,66.90
2022-10-17T18:45:54.785Z,47.58
2022-10-17T18:49:02.596Z,37.70
2022-10-17T18:58:27.132Z,43.75
2022-10-17T19:01:34.983Z,36.33
2022-10-17T19:04:43.616Z,28.05
2022-10-17T19:07:52.890Z,55.40
2022-10-17T19:11:07.337Z,55.60
2022-10-17T19:14:17.188Z,41.45
2022-10-17T19:17:22.225Z,40.92
2022-10-17T19:20:27.163Z,46.95
2022-10-17T19:23:31.345Z,45.53
2022-10-17T19:26:37.809Z,53.15
2022-10-17T19:29:44.183Z,51.28
2022-10-17T19:32:49.780Z,57.35
2022-10-17T19:35:59.243Z,49.75
2022-10-17T19:39:06.997Z,42.78
2022-10-17T19:42:10.585Z,44.47
2022-10-17T19:45:14.507Z,39.22
2022-10-17T19:48:18.453Z,44.25
2022-10-17T19:51:27.073Z,43.17
2022-10-17T19:54:30.824Z,55.33
2022-10-17T19:57:36.829Z,37.55
2022-10-17T20:00:50.881Z,46.90
2022-10-17T20:03:55.806Z,94.95
2022-10-17T20:07:01.171Z,102.75
2022-10-17T20:10:07.006Z,116.10
2022-10-17T20:13:11.672Z,112.50
2022-10-17T20:16:22.112Z,84.40
2022-10-17T20:19:26.391Z,101.38
2022-10-17T20:22:30.484Z,76.25
2022-10-17T20:25:35.272Z,58.42
2022-10-17T20:28:39.024Z,48.10
2022-10-17T20:31:45.248Z,48.83
2022-10-17T20:34:49.236Z,45.60
2022-10-17T20:37:54.508Z,64.28
2022-10-17T20:41:03.175Z,78.30
2022-10-17T20:44:08.187Z,55.95
2022-10-17T20:47:21.073Z,62.80
2022-10-17T20:50:38.755Z,46.75
2022-10-17T20:53:43.028Z,56.70
2022-10-17T20:56:46.560Z,48.17
2022-10-17T20:59:49.646Z,63.05
2022-10-17T21:05:58.284Z,104.47
2022-10-17T21:09:01.767Z,81.47
2022-10-17T21:12:06.505Z,104.22
2022-10-17T21:15:10.333Z,87.35
2022-10-17T21:18:14.027Z,74.78
2022-10-17T21:21:28.612Z,72.63
2022-10-17T21:24:32.984Z,77.53
2022-10-17T21:27:37.557Z,53.55
2022-10-17T21:30:41.141Z,62.92
2022-10-17T21:33:49.789Z,55.40
2022-10-17T21:36:54.120Z,58.28
2022-10-17T21:39:57.669Z,53.63
2022-10-17T21:43:01.293Z,53.58
2022-10-17T21:46:14.417Z,50.22
2022-10-17T21:49:21.605Z,47.95
2022-10-17T21:52:25.746Z,47.08
2022-10-17T21:55:30.614Z,41.22
2022-10-17T21:58:34.710Z,46.35
2022-10-17T22:01:41.515Z,44.55
2022-10-17T22:04:45.051Z,42.93
2022-10-17T22:07:48.824Z,45.80
2022-10-17T22:10:52.616Z,38.13
2022-10-17T22:14:01.305Z,44.72
2022-10-17T22:17:05.334Z,38.90
2022-10-17T22:20:10.719Z,36.33
2022-10-17T22:23:15.188Z,58.17
2022-10-17T22:26:18.914Z,50.17
2022-10-17T22:29:23.029Z,43.72
2022-10-17T22:32:27.764Z,54.97
2022-10-17T22:35:32.287Z,45.15
2022-10-17T22:38:37.058Z,57.92
2022-10-17T22:41:41.040Z,49.30
2022-10-17T22:44:45.070Z,40.75
2022-10-17T22:54:29.918Z,39.67
2022-10-17T22:57:33.487Z,39.28
2022-10-17T23:00:46.329Z,49.88
2022-10-17T23:07:36.514Z,23.25
2022-10-17T23:17:28.591Z,29.02
2022-10-17T23:20:35.780Z,38.30
2022-10-17T23:26:59.777Z,34.97
2022-10-17T23:33:29.510Z,43.40
2022-10-17T23:36:34.667Z,43.88
2022-10-17T23:39:39.092Z,37.80
2022-10-17T23:42:43.857Z,31.13
2022-10-17T23:45:48.916Z,31.35
2022-10-17T23:48:59.528Z,40.50
2022-10-17T23:52:17.085Z,52.97
2022-10-17T23:59:05.013Z,44.28
